createdAt,value
2018-04-11T00:00:31.179Z,0
2018-04-11T00:01:31.464Z,0
2018-04-11T00:02:30.981Z,0
2018-04-11T00:03:31.488Z,0
2018-04-11T00:04:31.506Z,0
2018-04-11T00:05:31.522Z,4
2018-04-11T00:06:31.297Z,4
2018-04-11T00:07:31.321Z,4
2018-04-11T00:08:31.092Z,4
2018-04-11T00:09:31.100Z,0
2018-04-11T00:10:31.168Z,0
2018-04-11T00:11:31.656Z,0
2018-04-11T00:12:31.162Z,4
2018-04-11T00:13:31.461Z,4
2018-04-11T00:14:31.719Z,4
2018-04-11T00:15:31.784Z,4
2018-04-11T00:16:31.757Z,4
2018-04-11T00:17:31.523Z,0
2018-04-11T00:18:31.792Z,0
2018-04-11T00:19:31.567Z,0
2018-04-11T00:20:31.327Z,4
2018-04-11T00:21:31.606Z,4
2018-04-11T00:22:31.920Z,0
2018-04-11T00:23:31.900Z,4
2018-04-11T00:24:31.667Z,0
2018-04-11T00:25:31.946Z,0
2018-04-11T00:26:31.961Z,0
2018-04-11T00:27:31.473Z,0
2018-04-11T00:28:31.752Z,0
2018-04-11T00:29:32.027Z,0
2018-04-11T00:30:32.091Z,0
2018-04-11T00:31:32.072Z,4
2018-04-11T00:32:32.085Z,0
2018-04-11T00:33:32.099Z,0
2018-04-11T00:34:31.862Z,0
2018-04-11T00:35:32.154Z,4
2018-04-11T00:36:31.906Z,0
2018-04-11T00:37:32.175Z,4
2018-04-11T00:38:32.211Z,4
2018-04-11T00:39:32.222Z,4
2018-04-11T00:40:31.984Z,0
2018-04-11T00:41:31.997Z,0
2018-04-11T00:42:32.013Z,0
2018-04-11T00:43:32.300Z,4
2018-04-11T00:44:32.058Z,0
2018-04-11T00:45:32.386Z,0
2018-04-11T00:46:32.475Z,0
2018-04-11T00:47:31.867Z,0
2018-04-11T00:48:32.424Z,0
2018-04-11T00:49:32.211Z,0
2018-04-11T00:50:31.929Z,0
2018-04-11T00:51:32.201Z,0
2018-04-11T00:52:32.479Z,0
2018-04-11T00:53:32.498Z,0
2018-04-11T00:54:32.266Z,0
2018-04-11T00:55:32.054Z,0
2018-04-11T00:56:32.562Z,0
2018-04-11T00:57:32.578Z,0
2018-04-11T00:58:32.602Z,0
2018-04-11T00:59:32.369Z,0
2018-04-11T01:00:32.177Z,0
2018-04-11T01:01:32.405Z,0
2018-04-11T01:02:32.676Z,0
2018-04-11T01:03:32.709Z,0
2018-04-11T01:04:32.202Z,0
2018-04-11T01:05:32.488Z,0
2018-04-11T01:06:32.499Z,0
2018-04-11T01:07:32.771Z,0
2018-04-11T01:08:32.533Z,0
2018-04-11T01:09:32.809Z,0
2018-04-11T01:10:32.843Z,0
2018-04-11T01:11:32.599Z,0
2018-04-11T01:12:32.869Z,0
2018-04-11T01:13:32.893Z,0
2018-04-11T01:14:32.667Z,0
2018-04-11T01:15:32.982Z,0
2018-04-11T01:16:32.958Z,0
2018-04-11T01:17:32.972Z,0
2018-04-11T01:18:32.990Z,0
2018-04-11T01:19:32.754Z,0
2018-04-11T01:20:32.774Z,0
2018-04-11T01:21:33.049Z,0
2018-04-11T01:22:32.808Z,0
2018-04-11T01:23:32.832Z,0
2018-04-11T01:24:32.599Z,0
2018-04-11T01:25:32.878Z,0
2018-04-11T01:26:33.152Z,0
2018-04-11T01:27:32.665Z,0
2018-04-11T01:28:32.929Z,0
2018-04-11T01:29:32.956Z,4
2018-04-11T01:30:33.279Z,0
2018-04-11T01:31:32.737Z,0
2018-04-11T01:32:33.010Z,4
2018-04-11T01:33:33.287Z,4
2018-04-11T01:34:32.797Z,0
2018-04-11T01:35:33.327Z,0
2018-04-11T01:36:32.835Z,0
2018-04-11T01:37:33.362Z,0
2018-04-11T01:38:33.135Z,0
2018-04-11T01:39:32.896Z,0
2018-04-11T01:40:33.429Z,0
2018-04-11T01:41:33.444Z,0
2018-04-11T01:42:32.956Z,0
2018-04-11T01:43:33.483Z,0
2018-04-11T01:44:33.498Z,0
2018-04-11T01:45:33.567Z,0
2018-04-11T01:46:33.286Z,0
2018-04-11T01:47:33.560Z,0
2018-04-11T01:48:33.578Z,0
2018-04-11T01:49:33.601Z,0
2018-04-11T01:50:33.364Z,0
2018-04-11T01:51:33.379Z,0
2018-04-11T01:52:33.414Z,0
2018-04-11T01:53:33.662Z,0
2018-04-11T01:54:33.176Z,0
2018-04-11T01:55:33.210Z,0
2018-04-11T01:56:33.739Z,0
2018-04-11T01:57:33.753Z,0
2018-04-11T01:58:33.545Z,0
2018-04-11T01:59:33.810Z,0
2018-04-11T02:00:33.875Z,0
2018-04-11T02:01:33.588Z,0
2018-04-11T02:02:33.857Z,0
2018-04-11T02:03:33.873Z,0
2018-04-11T02:04:33.384Z,0
2018-04-11T02:05:33.916Z,0
2018-04-11T02:06:33.951Z,0
2018-04-11T02:07:33.704Z,0
2018-04-11T02:08:33.764Z,0
2018-04-11T02:09:33.754Z,0
2018-04-11T02:10:33.808Z,0
2018-04-11T02:11:34.059Z,0
2018-04-11T02:12:33.801Z,0
2018-04-11T02:13:33.819Z,0
2018-04-11T02:14:34.093Z,0
2018-04-11T02:15:33.902Z,0
2018-04-11T02:16:33.620Z,0
2018-04-11T02:17:33.899Z,0
2018-04-11T02:18:34.175Z,0
2018-04-11T02:19:34.185Z,0
2018-04-11T02:20:33.951Z,0
2018-04-11T02:21:33.729Z,0
2018-04-11T02:22:34.002Z,0
2018-04-11T02:23:34.023Z,0
2018-04-11T02:24:34.292Z,0
2018-04-11T02:25:34.316Z,0
2018-04-11T02:26:34.088Z,0
2018-04-11T02:27:34.366Z,0
2018-04-11T02:28:34.421Z,0
2018-04-11T02:29:34.408Z,0
2018-04-11T02:30:34.474Z,0
2018-04-11T02:31:34.188Z,0
2018-04-11T02:32:34.458Z,0
2018-04-11T02:33:34.238Z,0
2018-04-11T02:34:34.508Z,0
2018-04-11T02:35:34.525Z,0
2018-04-11T02:36:34.283Z,0
2018-04-11T02:37:34.577Z,0
2018-04-11T02:38:34.583Z,0
2018-04-11T02:39:34.612Z,0
2018-04-11T02:40:34.420Z,0
2018-04-11T02:41:34.410Z,0
2018-04-11T02:42:34.673Z,0
2018-04-11T02:43:34.688Z,0
2018-04-11T02:44:34.719Z,0
2018-04-11T02:45:34.471Z,0
2018-04-11T02:46:34.769Z,0
2018-04-11T02:47:34.254Z,0
2018-04-11T02:48:34.541Z,0
2018-04-11T02:49:34.809Z,0
2018-04-11T02:50:34.795Z,0
2018-04-11T02:51:34.843Z,0
2018-04-11T02:52:34.925Z,0
2018-04-11T02:53:34.633Z,0
2018-04-11T02:54:34.656Z,0
2018-04-11T02:55:34.725Z,0
2018-04-11T02:56:34.949Z,0
2018-04-11T02:57:34.979Z,0
2018-04-11T02:58:34.983Z,0
2018-04-11T02:59:35.026Z,0
2018-04-11T03:00:34.785Z,0
2018-04-11T03:01:35.044Z,0
2018-04-11T03:02:34.556Z,0
2018-04-11T03:03:35.088Z,0
2018-04-11T03:04:35.127Z,0
2018-04-11T03:05:34.880Z,0
2018-04-11T03:06:35.149Z,0
2018-04-11T03:07:35.181Z,0
2018-04-11T03:08:34.932Z,0
2018-04-11T03:09:34.954Z,0
2018-04-11T03:10:35.289Z,0
2018-04-11T03:11:35.009Z,0
2018-04-11T03:12:34.764Z,0
2018-04-11T03:13:35.044Z,0
2018-04-11T03:14:35.311Z,0
2018-04-11T03:15:35.326Z,0
2018-04-11T03:16:35.140Z,0
2018-04-11T03:17:35.120Z,0
2018-04-11T03:18:35.389Z,0
2018-04-11T03:19:35.412Z,0
2018-04-11T03:20:35.172Z,0
2018-04-11T03:21:35.444Z,0
2018-04-11T03:22:35.216Z,0
2018-04-11T03:23:35.493Z,0
2018-04-11T03:24:35.527Z,0
2018-04-11T03:25:35.328Z,0
2018-04-11T03:26:35.293Z,0
2018-04-11T03:27:35.084Z,0
2018-04-11T03:28:35.592Z,0
2018-04-11T03:29:35.096Z,0
2018-04-11T03:30:35.372Z,0
2018-04-11T03:31:35.390Z,0
2018-04-11T03:32:35.647Z,0
2018-04-11T03:33:35.538Z,0
2018-04-11T03:34:35.709Z,0
2018-04-11T03:35:35.735Z,0
2018-04-11T03:36:35.512Z,0
2018-04-11T03:37:35.505Z,0
2018-04-11T03:38:35.782Z,0
2018-04-11T03:39:35.804Z,0
2018-04-11T03:40:35.623Z,0
2018-04-11T03:41:35.589Z,0
2018-04-11T03:42:35.613Z,0
2018-04-11T03:43:35.876Z,0
2018-04-11T03:44:35.926Z,0
2018-04-11T03:45:35.925Z,0
2018-04-11T03:46:35.946Z,0
2018-04-11T03:47:35.958Z,0
2018-04-11T03:48:35.471Z,0
2018-04-11T03:49:35.998Z,0
2018-04-11T03:50:35.763Z,0
2018-04-11T03:51:36.039Z,0
2018-04-11T03:52:36.056Z,0
2018-04-11T03:53:35.823Z,0
2018-04-11T03:54:36.097Z,0
2018-04-11T03:55:36.166Z,0
2018-04-11T03:56:36.139Z,0
2018-04-11T03:57:35.646Z,4
2018-04-11T03:58:36.175Z,4
2018-04-11T03:59:35.954Z,4
2018-04-11T04:00:36.223Z,4
2018-04-11T04:01:36.001Z,4
2018-04-11T04:02:36.259Z,4
2018-04-11T04:03:36.016Z,4
2018-04-11T04:04:35.785Z,4
2018-04-11T04:05:36.061Z,0
2018-04-11T04:06:35.823Z,4
2018-04-11T04:07:36.135Z,4
2018-04-11T04:08:36.363Z,4
2018-04-11T04:09:36.398Z,4
2018-04-11T04:10:36.480Z,8
2018-04-11T04:11:36.436Z,4
2018-04-11T04:12:36.200Z,8
2018-04-11T04:13:35.976Z,8
2018-04-11T04:14:36.503Z,12
2018-04-11T04:15:36.508Z,12
2018-04-11T04:16:36.528Z,16
2018-04-11T04:17:36.295Z,20
2018-04-11T04:18:36.569Z,20
2018-04-11T04:19:36.613Z,24
2018-04-11T04:20:36.378Z,32
2018-04-11T04:21:36.369Z,36
2018-04-11T04:22:36.650Z,44
2018-04-11T04:23:36.667Z,48
2018-04-11T04:24:36.685Z,60
2018-04-11T04:25:36.757Z,68
2018-04-11T04:26:36.476Z,76
2018-04-11T04:27:36.761Z,88
2018-04-11T04:28:36.763Z,100
2018-04-11T04:29:36.558Z,112
2018-04-11T04:30:36.812Z,128
2018-04-11T04:31:36.821Z,144
2018-04-11T04:32:36.844Z,156
2018-04-11T04:33:36.362Z,176
2018-04-11T04:34:36.379Z,192
2018-04-11T04:35:36.924Z,216
2018-04-11T04:36:36.928Z,236
2018-04-11T04:37:36.959Z,260
2018-04-11T04:38:36.707Z,280
2018-04-11T04:39:36.985Z,308
2018-04-11T04:40:37.158Z,340
2018-04-11T04:41:36.775Z,368
2018-04-11T04:42:36.797Z,400
2018-04-11T04:43:36.981Z,432
2018-04-11T04:44:36.826Z,468
2018-04-11T04:45:37.103Z,500
2018-04-11T04:46:37.124Z,536
2018-04-11T04:47:36.889Z,572
2018-04-11T04:48:37.167Z,608
2018-04-11T04:49:37.187Z,644
2018-04-11T04:50:37.202Z,676
2018-04-11T04:51:37.223Z,716
2018-04-11T04:52:36.981Z,748
2018-04-11T04:53:37.006Z,784
2018-04-11T04:54:36.771Z,808
2018-04-11T04:55:37.095Z,840
2018-04-11T04:56:37.314Z,872
2018-04-11T04:57:37.082Z,904
2018-04-11T04:58:37.113Z,932
2018-04-11T04:59:37.125Z,968
2018-04-11T05:00:37.405Z,1012
2018-04-11T05:01:37.417Z,1040
2018-04-11T05:02:37.445Z,1088
2018-04-11T05:03:36.694Z,1132
2018-04-11T05:04:37.475Z,1172
2018-04-11T05:05:37.240Z,1204
2018-04-11T05:06:37.549Z,1244
2018-04-11T05:07:37.440Z,1280
2018-04-11T05:08:37.556Z,1316
2018-04-11T05:09:37.063Z,1352
2018-04-11T05:10:37.592Z,1384
2018-04-11T05:11:37.353Z,1428
2018-04-11T05:12:37.635Z,1464
2018-04-11T05:13:37.407Z,1496
2018-04-11T05:14:37.680Z,1532
2018-04-11T05:15:37.698Z,1564
2018-04-11T05:16:37.706Z,1592
2018-04-11T05:17:37.736Z,1620
2018-04-11T05:18:37.753Z,1656
2018-04-11T05:19:37.773Z,1688
2018-04-11T05:20:37.789Z,1724
2018-04-11T05:21:37.807Z,1756
2018-04-11T05:22:37.585Z,1792
2018-04-11T05:23:37.595Z,1820
2018-04-11T05:24:37.612Z,1852
2018-04-11T05:25:37.685Z,1888
2018-04-11T05:26:37.408Z,1916
2018-04-11T05:27:37.941Z,1964
2018-04-11T05:28:37.692Z,1992
2018-04-11T05:29:37.964Z,2032
2018-04-11T05:30:37.733Z,2068
2018-04-11T05:31:37.748Z,2108
2018-04-11T05:32:37.772Z,2148
2018-04-11T05:33:37.539Z,2192
2018-04-11T05:34:37.555Z,2236
2018-04-11T05:35:38.111Z,2280
2018-04-11T05:36:38.106Z,2332
2018-04-11T05:37:38.126Z,2376
2018-04-11T05:38:38.143Z,2412
2018-04-11T05:39:38.164Z,2452
2018-04-11T05:40:37.738Z,2500
2018-04-11T05:41:38.202Z,2520
2018-04-11T05:42:38.244Z,2540
2018-04-11T05:43:38.248Z,2576
2018-04-11T05:44:38.267Z,2628
2018-04-11T05:45:38.033Z,2664
2018-04-11T05:46:38.302Z,2676
2018-04-11T05:47:38.328Z,2720
2018-04-11T05:48:37.837Z,2748
2018-04-11T05:49:38.364Z,2812
2018-04-11T05:50:38.396Z,2880
2018-04-11T05:51:38.155Z,2928
2018-04-11T05:52:38.423Z,2972
2018-04-11T05:53:38.440Z,3004
2018-04-11T05:54:38.467Z,2980
2018-04-11T05:55:38.281Z,3068
2018-04-11T05:56:38.250Z,3112
2018-04-11T05:57:38.278Z,3156
2018-04-11T05:58:38.288Z,3184
2018-04-11T05:59:38.561Z,3248
2018-04-11T06:00:38.376Z,3252
2018-04-11T06:01:38.084Z,3296
2018-04-11T06:02:38.606Z,3332
2018-04-11T06:03:38.128Z,3364
2018-04-11T06:04:38.668Z,3408
2018-04-11T06:05:38.679Z,3464
2018-04-11T06:06:38.452Z,3500
2018-04-11T06:07:38.734Z,3496
2018-04-11T06:08:38.501Z,3500
2018-04-11T06:09:38.512Z,3592
2018-04-11T06:10:38.581Z,3632
2018-04-11T06:11:38.816Z,3688
2018-04-11T06:12:38.823Z,3696
2018-04-11T06:13:38.843Z,3708
2018-04-11T06:14:38.865Z,3756
2018-04-11T06:15:38.223Z,3792
2018-04-11T06:16:38.649Z,3856
2018-04-11T06:17:38.940Z,3880
2018-04-11T06:18:38.964Z,3908
2018-04-11T06:19:38.707Z,3924
2018-04-11T06:20:38.223Z,3972
2018-04-11T06:21:38.497Z,3968
2018-04-11T06:22:38.513Z,4004
2018-04-11T06:23:38.537Z,4088
2018-04-11T06:24:39.063Z,4080
2018-04-11T06:25:39.128Z,4104
2018-04-11T06:26:39.137Z,4144
2018-04-11T06:27:38.860Z,4184
2018-04-11T06:28:39.137Z,4204
2018-04-11T06:29:38.653Z,4216
2018-04-11T06:30:38.934Z,4276
2018-04-11T06:31:38.692Z,4320
2018-04-11T06:32:39.225Z,4352
2018-04-11T06:33:38.989Z,4388
2018-04-11T06:34:39.010Z,4432
2018-04-11T06:35:39.287Z,4444
2018-04-11T06:36:38.540Z,4488
2018-04-11T06:37:39.323Z,4544
2018-04-11T06:38:39.359Z,4552
2018-04-11T06:39:39.364Z,4564
2018-04-11T06:40:39.140Z,4596
2018-04-11T06:41:38.903Z,4628
2018-04-11T06:42:39.174Z,4680
2018-04-11T06:43:39.463Z,4688
2018-04-11T06:44:39.206Z,4760
2018-04-11T06:45:39.241Z,4776
2018-04-11T06:46:39.264Z,4820
2018-04-11T06:47:39.522Z,4856
2018-04-11T06:48:39.293Z,4868
2018-04-11T06:49:39.568Z,4868
2018-04-11T06:50:39.384Z,4900
2018-04-11T06:51:39.600Z,4920
2018-04-11T06:52:39.615Z,4976
2018-04-11T06:53:39.144Z,5028
2018-04-11T06:54:39.173Z,5072
2018-04-11T06:55:39.698Z,5080
2018-04-11T06:56:39.771Z,5116
2018-04-11T06:57:39.732Z,5172
2018-04-11T06:58:39.495Z,5212
2018-04-11T06:59:39.565Z,5260
2018-04-11T07:00:39.795Z,5224
2018-04-11T07:01:39.868Z,5284
2018-04-11T07:02:39.351Z,5344
2018-04-11T07:03:39.846Z,5352
2018-04-11T07:04:39.614Z,5416
2018-04-11T07:05:40.011Z,5428
2018-04-11T07:06:39.909Z,5392
2018-04-11T07:07:39.934Z,5312
2018-04-11T07:08:39.702Z,5308
2018-04-11T07:09:40.083Z,5368
2018-04-11T07:10:39.989Z,5444
2018-04-11T07:11:39.754Z,5480
2018-04-11T07:12:40.033Z,5524
2018-04-11T07:13:40.056Z,5620
2018-04-11T07:14:40.083Z,5652
2018-04-11T07:15:40.113Z,5688
2018-04-11T07:16:40.190Z,5724
2018-04-11T07:17:39.900Z,5772
2018-04-11T07:18:39.408Z,5800
2018-04-11T07:19:39.940Z,5820
2018-04-11T07:20:39.705Z,5812
2018-04-11T07:21:40.245Z,5824
2018-04-11T07:22:40.001Z,5836
2018-04-11T07:23:40.028Z,5836
2018-04-11T07:24:40.301Z,5884
2018-04-11T07:25:40.320Z,5924
2018-04-11T07:26:40.354Z,5900
2018-04-11T07:27:39.855Z,5888
2018-04-11T07:28:40.387Z,5920
2018-04-11T07:29:40.144Z,5944
2018-04-11T07:30:39.913Z,5952
2018-04-11T07:31:40.034Z,5988
2018-04-11T07:32:39.954Z,6020
2018-04-11T07:33:40.480Z,6044
2018-04-11T07:34:40.252Z,6092
2018-04-11T07:35:40.279Z,6100
2018-04-11T07:36:40.557Z,6124
2018-04-11T07:37:40.318Z,6136
2018-04-11T07:38:40.343Z,6120
2018-04-11T07:39:39.852Z,6148
2018-04-11T07:40:40.381Z,6164
2018-04-11T07:41:40.777Z,6168
2018-04-11T07:42:40.706Z,6204
2018-04-11T07:43:40.455Z,6216
2018-04-11T07:44:40.478Z,6260
2018-04-11T07:45:40.758Z,6252
2018-04-11T07:46:40.318Z,6244
2018-04-11T07:47:40.800Z,6288
2018-04-11T07:48:40.571Z,6304
2018-04-11T07:49:40.856Z,6344
2018-04-11T07:50:40.353Z,6348
2018-04-11T07:51:40.636Z,6340
2018-04-11T07:52:40.894Z,6360
2018-04-11T07:53:40.967Z,6396
2018-04-11T07:54:40.914Z,6420
2018-04-11T07:55:40.723Z,6448
2018-04-11T07:56:40.490Z,6464
2018-04-11T07:57:41.024Z,6492
2018-04-11T07:58:41.041Z,6488
2018-04-11T07:59:40.556Z,6512
2018-04-11T08:00:40.836Z,6556
2018-04-11T08:01:40.690Z,6572
2018-04-11T08:02:40.872Z,6580
2018-04-11T08:03:41.019Z,6612
2018-04-11T08:04:40.665Z,6628
2018-04-11T08:05:40.942Z,6656
2018-04-11T08:06:41.261Z,6684
2018-04-11T08:07:41.251Z,6716
2018-04-11T08:08:41.271Z,6780
2018-04-11T08:09:41.305Z,6812
2018-04-11T08:10:40.798Z,6808
2018-04-11T08:11:41.224Z,6852
2018-04-11T08:12:41.360Z,6888
2018-04-11T08:13:41.373Z,6904
2018-04-11T08:14:41.205Z,6928
2018-04-11T08:15:41.431Z,6984
2018-04-11T08:16:41.447Z,7016
2018-04-11T08:17:41.222Z,7072
2018-04-11T08:18:41.489Z,7056
2018-04-11T08:19:41.518Z,7096
2018-04-11T08:20:41.277Z,7144
2018-04-11T08:21:41.651Z,7108
2018-04-11T08:22:40.835Z,7188
2018-04-11T08:23:41.597Z,7236
2018-04-11T08:24:41.364Z,7248
2018-04-11T08:25:41.649Z,7328
2018-04-11T08:26:41.413Z,7328
2018-04-11T08:27:41.672Z,7364
2018-04-11T08:28:41.715Z,7432
2018-04-11T08:29:41.483Z,7552
2018-04-11T08:30:41.764Z,7612
2018-04-11T08:31:41.791Z,7744
2018-04-11T08:32:41.547Z,7868
2018-04-11T08:33:41.825Z,7864
2018-04-11T08:34:41.808Z,7852
2018-04-11T08:35:41.621Z,7872
2018-04-11T08:36:41.954Z,7912
2018-04-11T08:37:41.921Z,7904
2018-04-11T08:38:41.442Z,7940
2018-04-11T08:39:41.717Z,8080
2018-04-11T08:40:42.006Z,8132
2018-04-11T08:41:41.773Z,8288
2018-04-11T08:42:42.038Z,8432
2018-04-11T08:43:42.078Z,8640
2018-04-11T08:44:41.842Z,8204
2018-04-11T08:45:42.122Z,8396
2018-04-11T08:46:42.134Z,8568
2018-04-11T08:47:41.904Z,8392
2018-04-11T08:48:41.944Z,8336
2018-04-11T08:49:41.699Z,8480
2018-04-11T08:50:41.721Z,8632
2018-04-11T08:51:42.002Z,8768
2018-04-11T08:52:42.133Z,8824
2018-04-11T08:53:41.797Z,9140
2018-04-11T08:54:42.302Z,9264
2018-04-11T08:55:42.323Z,9344
2018-04-11T08:56:41.845Z,9352
2018-04-11T08:57:41.873Z,9568
2018-04-11T08:58:42.496Z,9744
2018-04-11T08:59:42.416Z,9720
2018-04-11T09:00:42.446Z,9696
2018-04-11T09:01:42.215Z,9808
2018-04-11T09:02:42.491Z,9960
2018-04-11T09:03:42.023Z,9968
2018-04-11T09:04:42.609Z,9880
2018-04-11T09:05:42.590Z,9840
2018-04-11T09:06:42.624Z,9856
2018-04-11T09:07:42.633Z,9600
2018-04-11T09:08:42.451Z,9352
2018-04-11T09:09:42.685Z,9092
2018-04-11T09:10:42.451Z,9144
2018-04-11T09:11:42.719Z,9180
2018-04-11T09:12:42.749Z,9320
2018-04-11T09:13:42.772Z,9400
2018-04-11T09:14:42.542Z,9276
2018-04-11T09:15:42.570Z,9532
2018-04-11T09:16:42.601Z,10440
2018-04-11T09:17:42.614Z,10956
2018-04-11T09:18:42.639Z,11036
2018-04-11T09:19:42.813Z,11012
2018-04-11T09:20:42.954Z,11068
2018-04-11T09:21:42.457Z,11168
2018-04-11T09:22:42.732Z,11420
2018-04-11T09:23:43.070Z,11516
2018-04-11T09:24:43.043Z,11492
2018-04-11T09:25:43.073Z,11468
2018-04-11T09:26:42.835Z,11648
2018-04-11T09:27:42.614Z,11548
2018-04-11T09:28:43.143Z,11324
2018-04-11T09:29:43.169Z,11976
2018-04-11T09:30:42.950Z,12224
2018-04-11T09:31:43.005Z,12316
2018-04-11T09:32:42.753Z,12304
2018-04-11T09:33:43.030Z,12344
2018-04-11T09:34:43.304Z,12484
2018-04-11T09:35:43.346Z,12644
2018-04-11T09:36:43.140Z,12792
2018-04-11T09:37:43.389Z,13076
2018-04-11T09:38:43.520Z,13336
2018-04-11T09:39:43.446Z,13668
2018-04-11T09:40:43.469Z,13856
2018-04-11T09:41:43.500Z,13688
2018-04-11T09:42:43.335Z,14272
2018-04-11T09:43:43.570Z,14592
2018-04-11T09:44:43.362Z,15104
2018-04-11T09:45:43.356Z,15296
2018-04-11T09:46:43.667Z,15424
2018-04-11T09:47:43.415Z,15872
2018-04-11T09:48:43.574Z,16352
2018-04-11T09:49:43.727Z,16832
2018-04-11T09:50:43.507Z,7712
2018-04-11T09:51:43.280Z,8956
2018-04-11T09:52:43.835Z,18752
2018-04-11T09:53:43.644Z,19392
2018-04-11T09:54:43.631Z,19680
2018-04-11T09:55:43.396Z,20416
2018-04-11T09:56:43.936Z,21088
2018-04-11T09:57:43.720Z,21120
2018-04-11T09:58:44.001Z,9004
2018-04-11T09:59:43.777Z,8804
2018-04-11T10:00:43.807Z,8796
2018-04-11T10:01:44.081Z,8736
2018-04-11T10:02:44.125Z,8748
2018-04-11T10:03:44.144Z,9228
2018-04-11T10:04:43.668Z,10200
2018-04-11T10:05:43.695Z,19872
2018-04-11T10:06:44.324Z,19872
2018-04-11T10:07:43.755Z,25408
2018-04-11T10:08:44.338Z,26400
2018-04-11T10:09:44.069Z,26464
2018-04-11T10:10:44.091Z,25344
2018-04-11T10:11:44.383Z,12504
2018-04-11T10:12:44.402Z,26656
2018-04-11T10:13:44.243Z,27936
2018-04-11T10:14:44.211Z,28448
2018-04-11T10:15:44.503Z,29120
2018-04-11T10:16:44.533Z,11808
2018-04-11T10:17:44.560Z,11856
2018-04-11T10:18:44.075Z,11464
2018-04-11T10:19:44.613Z,12424
2018-04-11T10:20:44.400Z,11608
2018-04-11T10:21:44.675Z,14092
2018-04-11T10:22:44.701Z,30112
2018-04-11T10:23:44.227Z,31232
2018-04-11T10:24:44.595Z,32704
2018-04-11T10:25:44.794Z,32544
2018-04-11T10:26:44.575Z,32544
2018-04-11T10:27:44.859Z,31328
2018-04-11T10:28:44.935Z,28704
2018-04-11T10:29:44.925Z,31520
2018-04-11T10:30:44.690Z,11856
2018-04-11T10:31:44.775Z,15052
2018-04-11T10:32:44.513Z,29888
2018-04-11T10:33:44.943Z,30112
2018-04-11T10:34:44.557Z,31808
2018-04-11T10:35:44.844Z,32224
2018-04-11T10:36:45.134Z,31136
2018-04-11T10:37:44.912Z,29024
2018-04-11T10:38:44.945Z,9584
2018-04-11T10:39:45.090Z,29024
2018-04-11T10:40:45.006Z,13000
2018-04-11T10:41:45.292Z,8436
2018-04-11T10:42:45.324Z,9028
2018-04-11T10:43:44.997Z,11112
2018-04-11T10:44:44.882Z,30272
2018-04-11T10:45:44.909Z,32288
2018-04-11T10:46:45.450Z,32128
2018-04-11T10:47:44.967Z,17664
2018-04-11T10:48:45.511Z,10268
2018-04-11T10:49:45.544Z,16672
2018-04-11T10:50:45.578Z,10896
2018-04-11T10:51:45.608Z,10248
2018-04-11T10:52:45.715Z,11792
2018-04-11T10:53:45.673Z,26080
2018-04-11T10:54:45.697Z,39776
2018-04-11T10:55:45.723Z,16128
2018-04-11T10:56:45.246Z,35296
2018-04-11T10:57:45.789Z,33952
2018-04-11T10:58:45.868Z,35104
2018-04-11T10:59:45.596Z,34592
2018-04-11T11:00:45.630Z,36864
2018-04-11T11:01:45.916Z,39296
2018-04-11T11:02:45.954Z,38464
2018-04-11T11:03:45.985Z,38752
2018-04-11T11:04:46.015Z,39200
2018-04-11T11:05:46.048Z,38624
2018-04-11T11:06:45.823Z,34848
2018-04-11T11:07:46.108Z,16540
2018-04-11T11:08:45.941Z,37536
2018-04-11T11:09:46.086Z,36512
2018-04-11T11:10:45.712Z,38336
2018-04-11T11:11:46.255Z,35904
2018-04-11T11:12:46.018Z,38816
2018-04-11T11:13:46.309Z,29088
2018-04-11T11:14:46.342Z,13112
2018-04-11T11:15:46.382Z,17056
2018-04-11T11:16:46.417Z,40608
2018-04-11T11:17:46.186Z,38464
2018-04-11T11:18:46.218Z,40352
2018-04-11T11:19:46.501Z,41632
2018-04-11T11:20:46.284Z,37920
2018-04-11T11:21:46.316Z,38528
2018-04-11T11:22:46.615Z,37536
2018-04-11T11:23:46.689Z,38752
2018-04-11T11:24:46.421Z,12816
2018-04-11T11:25:46.455Z,11176
2018-04-11T11:26:46.742Z,11688
2018-04-11T11:27:46.270Z,38240
2018-04-11T11:28:46.806Z,32416
2018-04-11T11:29:46.847Z,53728
2018-04-11T11:30:46.923Z,56960
2018-04-11T11:31:46.905Z,55360
2018-04-11T11:32:46.939Z,39136
2018-04-11T11:33:46.465Z,33056
2018-04-11T11:34:47.025Z,15052
2018-04-11T11:35:46.788Z,45024
2018-04-11T11:36:47.074Z,45824
2018-04-11T11:37:47.100Z,49344
2018-04-11T11:38:46.668Z,52128
2018-04-11T11:39:46.670Z,33472
2018-04-11T11:40:47.205Z,55104
2018-04-11T11:41:47.035Z,56160
2018-04-11T11:42:47.024Z,59008
2018-04-11T11:43:47.053Z,59904
2018-04-11T11:44:46.835Z,52416
2018-04-11T11:45:47.386Z,53440
2018-04-11T11:46:47.154Z,58176
2018-04-11T11:47:47.230Z,58400
2018-04-11T11:48:47.476Z,54272
2018-04-11T11:49:47.263Z,53344
2018-04-11T11:50:47.307Z,59008
2018-04-11T11:51:47.599Z,60800
2018-04-11T11:52:47.610Z,57728
2018-04-11T11:53:47.399Z,55360
2018-04-11T11:54:47.431Z,53824
2018-04-11T11:55:47.214Z,52576
2018-04-11T11:56:47.558Z,48032
2018-04-11T11:57:47.790Z,44608
2018-04-11T11:58:47.593Z,44032
2018-04-11T11:59:47.357Z,46688
2018-04-11T12:00:47.905Z,51040
2018-04-11T12:01:47.682Z,51136
2018-04-11T12:02:47.717Z,51008
2018-04-11T12:03:47.761Z,51712
2018-04-11T12:04:47.538Z,54336
2018-04-11T12:05:47.868Z,57664
2018-04-11T12:06:47.856Z,57568
2018-04-11T12:07:47.642Z,58016
2018-04-11T12:08:48.243Z,63392
2018-04-11T12:09:48.215Z,64864
2018-04-11T12:10:48.255Z,64672
2018-04-11T12:11:48.388Z,62688
2018-04-11T12:12:48.321Z,56096
2018-04-11T12:13:48.360Z,45120
2018-04-11T12:14:48.400Z,41280
2018-04-11T12:15:48.432Z,50144
2018-04-11T12:16:48.522Z,62976
2018-04-11T12:17:48.522Z,67552
2018-04-11T12:18:48.286Z,66144
2018-04-11T12:19:48.328Z,52704
2018-04-11T12:20:48.355Z,39200
2018-04-11T12:21:48.653Z,14684
2018-04-11T12:22:48.735Z,13668
2018-04-11T12:23:48.727Z,17036
2018-04-11T12:24:48.509Z,60608
2018-04-11T12:25:48.545Z,61696
2018-04-11T12:26:48.688Z,64864
2018-04-11T12:27:48.934Z,67776
2018-04-11T12:28:48.904Z,68800
2018-04-11T12:29:48.683Z,69952
2018-04-11T12:30:48.983Z,70368
2018-04-11T12:31:49.068Z,70560
2018-04-11T12:32:48.788Z,70976
2018-04-11T12:33:48.826Z,69792
2018-04-11T12:34:48.884Z,68512
2018-04-11T12:35:49.144Z,66976
2018-04-11T12:36:48.935Z,69440
2018-04-11T12:37:48.967Z,71616
2018-04-11T12:38:49.255Z,71840
2018-04-11T12:39:49.300Z,70272
2018-04-11T12:40:49.077Z,73792
2018-04-11T12:41:49.118Z,73376
2018-04-11T12:42:48.894Z,72736
2018-04-11T12:43:49.183Z,72864
2018-04-11T12:44:49.225Z,28384
2018-04-11T12:45:49.005Z,76608
2018-04-11T12:46:49.607Z,75872
2018-04-11T12:47:49.335Z,76096
2018-04-11T12:48:49.623Z,75648
2018-04-11T12:49:49.793Z,76352
2018-04-11T12:50:49.192Z,50880
2018-04-11T12:51:49.727Z,36768
2018-04-11T12:52:49.516Z,78048
2018-04-11T12:53:49.550Z,78432
2018-04-11T12:54:49.585Z,76992
2018-04-11T12:55:49.926Z,75424
2018-04-11T12:56:49.931Z,72768
2018-04-11T12:57:49.695Z,74272
2018-04-11T12:58:49.737Z,78144
2018-04-11T12:59:49.783Z,78880
2018-04-11T13:00:49.807Z,77312
2018-04-11T13:01:49.893Z,76736
2018-04-11T13:02:50.161Z,76160
2018-04-11T13:03:50.181Z,74944
2018-04-11T13:04:50.212Z,75808
2018-04-11T13:05:50.003Z,76160
2018-04-11T13:06:50.289Z,73376
2018-04-11T13:07:50.331Z,72768
2018-04-11T13:08:50.112Z,75456
2018-04-11T13:09:49.895Z,76576
2018-04-11T13:10:50.443Z,75424
2018-04-11T13:11:50.228Z,73632
2018-04-11T13:12:50.519Z,72672
2018-04-11T13:13:50.049Z,72864
2018-04-11T13:14:50.597Z,73344
2018-04-11T13:15:50.392Z,72192
2018-04-11T13:16:50.464Z,70336
2018-04-11T13:17:50.447Z,69632
2018-04-11T13:18:50.786Z,72384
2018-04-11T13:19:50.291Z,75904
2018-04-11T13:20:50.570Z,77120
2018-04-11T13:21:50.852Z,78400
2018-04-11T13:22:50.644Z,78144
2018-04-11T13:23:50.930Z,77824
2018-04-11T13:24:50.969Z,77248
2018-04-11T13:25:51.068Z,75584
2018-04-11T13:26:51.040Z,69184
2018-04-11T13:27:50.572Z,67072
2018-04-11T13:28:51.129Z,66752
2018-04-11T13:29:50.902Z,75456
2018-04-11T13:30:50.688Z,79424
2018-04-11T13:31:51.033Z,84448
2018-04-11T13:32:51.282Z,81120
2018-04-11T13:33:51.055Z,80608
2018-04-11T13:34:51.368Z,82592
2018-04-11T13:35:51.390Z,79136
2018-04-11T13:36:51.181Z,80768
2018-04-11T13:37:51.213Z,83904